Latest Weather Observations for Charleville

IDQ60801

Issued at 8:32 pm EST Friday 26 February 2021 (issued every 10 minutes, with the page automatically refreshed every 10 minutes)

About weather observations | Map of weather stations | Latest weather observations for QLD | Other Formats
Station Details ID: 044021 Name: CHARLEVILLE AERO Lat: -26.41 Lon: 146.26 Height: 301.6 m
Data from the previous 72 hours. | See also: Recent months at Charleville
Date/Time
EST
Temp
°C
App
Temp
°C
Dew
Point
°C
Rel
Hum
%
Delta-T
°C
Wind Press
QNH
hPa
Press
MSL
hPa
Rain since
9am
mm
Dir  Spd
km/h
Gust
km/h
Spd
kts
Gust
kts
26/08:30pm 23.5 27.6 20.8 85 1.8 CALM 0 0 0 0 1010.2 1008.2 3.0
26/08:00pm 23.4 27.0 20.5 84 1.9 NE 2 7 1 4 1009.8 1007.8 3.0
26/07:30pm 23.6 25.9 20.7 84 1.9 NE 9 11 5 6 1010.0 1008.0 3.0
26/07:00pm 23.5 25.7 21.2 87 1.5 ESE 11 11 6 6 1009.2 1007.2 3.0
26/06:30pm 23.6 27.7 21.5 88 1.4 SSE 2 7 1 4 1009.4 1007.4 3.0
26/06:00pm 23.7 26.8 21.4 87 1.5 WNW 7 11 4 6 1009.0 1007.0 2.8
26/05:30pm 23.7 26.8 21.4 87 1.5 NNW 7 11 4 6 1009.0 1007.0 2.4
26/05:00pm 24.2 26.7 21.7 86 1.7 NNW 11 13 6 7 1008.7 1006.6 2.0
26/04:30pm 24.5 27.2 21.4 83 2.1 WNW 9 13 5 7 1008.6 1006.5 0.8
26/04:00pm 25.3 28.0 21.4 79 2.6 W 9 15 5 8 1008.3 1006.2 0.2
26/03:30pm 25.6 28.0 21.5 78 2.8 WSW 11 15 6 8 1008.4 1006.3 0.2
26/03:00pm 25.3 27.0 21.0 77 2.9 WNW 13 19 7 10 1008.4 1006.3 0.2
26/02:30pm 27.6 29.5 19.7 62 5.2 NW 9 13 5 7 1008.5 1006.4 0.0
26/02:00pm 29.1 29.9 18.2 51 7.1 W 11 15 6 8 1008.5 1006.4 0.0
26/01:30pm 29.2 29.3 18.3 51 7.1 WNW 15 20 8 11 1008.7 1006.6 0.0
26/01:00pm 29.4 29.4 18.2 51 7.3 NW 15 19 8 10 1009.1 1007.1 0.0
26/12:30pm 29.6 30.0 18.1 50 7.4 N 13 19 7 10 1009.2 1007.2 0.0
26/12:00pm 29.7 29.7 18.2 50 7.5 N 15 20 8 11 1009.4 1007.4 0.0
26/11:30am 29.5 29.3 17.7 49 7.6 NNW 15 22 8 12 1009.8 1007.8 0.0
26/11:00am 29.2 29.4 17.7 50 7.4 NNW 13 22 7 12 1009.9 1007.9 0.0
26/10:30am 28.3 27.8 18.7 56 6.2 NNE 19 26 10 14 1010.0 1008.0 0.0
26/10:00am 27.7 26.8 18.1 56 6.2 N 20 28 11 15 1010.3 1008.3 0.0
26/09:30am 27.0 26.7 19.1 62 5.1 N 19 26 10 14 1010.2 1008.2 0.0
26/09:00am 26.5 25.8 18.6 62 5.1 NNE 20 30 11 16 1010.3 1008.3 20.2
26/08:30am 26.3 26.8 18.4 61 5.1 NNE 13 19 7 10 1009.9 1007.9 20.2
26/08:00am 25.6 26.1 18.3 64 4.7 NNE 13 20 7 11 1009.9 1007.9 20.2
26/07:30am 24.1 25.3 18.3 70 3.7 NE 9 11 5 6 1009.7 1007.7 20.2
26/07:00am 22.8 24.4 18.3 76 2.9 NNE 7 9 4 5 1009.6 1007.6 20.2
26/06:30am 22.0 23.7 18.4 80 2.3 N 7 7 4 4 1009.1 1007.1 20.2
26/06:00am 21.3 23.0 18.5 84 1.8 NNW 7 9 4 5 1008.9 1006.8 20.2
26/05:30am 21.7 24.9 18.9 84 1.8 CALM 0 0 0 0 1008.5 1006.4 20.2
26/05:00am 21.7 23.6 18.5 82 2.0 NE 6 7 3 4 1008.1 1006.0 20.2
26/04:30am 21.5 23.7 18.3 82 2.0 NE 4 7 2 4 1008.1 1006.0 20.2
26/04:00am 21.5 24.3 18.9 85 1.7 NE 2 9 1 5 1008.1 1006.0 20.2
26/03:30am 21.3 23.6 18.5 84 1.8 NNE 4 9 2 5 1008.1 1006.0 20.2
26/03:00am 21.2 22.6 18.6 85 1.7 ENE 9 11 5 6 1008.3 1006.2 20.2
26/02:30am 21.2 22.7 18.8 86 1.5 ENE 9 13 5 7 1008.5 1006.4 20.2
26/02:00am 21.1 22.6 18.9 87 1.4 ENE 9 11 5 6 1008.8 1006.7 20.2
26/01:30am 21.0 21.7 18.9 88 1.3 E 13 17 7 9 1009.2 1007.2 20.2
26/01:00am 20.9 21.3 19.0 89 1.2 E 15 17 8 9 1009.8 1007.8 20.0
26/12:30am 20.9 22.2 19.2 90 1.1 ESE 11 15 6 8 1010.4 1008.4 20.0
26/12:00am 20.7 22.4 18.5 87 1.4 SW 7 9 4 5 1011.3 1009.2 20.0
 
Date/Time
EST
Temp
°C
App
Temp
°C
Dew
Point
°C
Rel
Hum
%
Delta-T
°C
Wind Press
QNH
hPa
Press
MSL
hPa
Rain since
9am
mm
Dir  Spd
km/h
Gust
km/h
Spd
kts
Gust
kts
25/11:38pm 21.0 22.8 18.8 87 1.4 WSW 7 13 4 7 1011.6 1009.5 19.8
25/11:30pm 21.0 22.5 18.9 88 1.3 WSW 9 13 5 7 1011.6 1009.5 19.8
25/11:26pm 21.1 22.7 19.2 89 1.2 WSW 9 13 5 7 1011.6 1009.5 19.6
25/11:00pm 21.3 23.3 19.2 88 1.3 W 7 13 4 7 1012.0 1010.0 18.8
25/10:30pm 21.3 22.8 19.0 87 1.5 W 9 15 5 8 1011.9 1009.8 18.2
25/10:00pm 21.8 22.7 19.2 85 1.7 W 13 26 7 14 1012.1 1010.1 17.8
25/09:30pm 23.0 24.1 19.6 81 2.2 W 13 20 7 11 1012.1 1010.1 17.0
25/09:00pm 22.9 25.8 19.9 83 2.0 NNE 4 9 2 5 1011.1 1009.0 17.0
25/08:30pm 22.4 24.3 19.8 85 1.7 ESE 9 13 5 7 1009.9 1007.9 17.0
25/08:00pm 22.3 24.2 19.7 85 1.7 ESE 9 11 5 6 1009.3 1007.3 17.0
25/07:30pm 22.2 22.9 19.7 86 1.6 ESE 15 19 8 10 1008.9 1006.8 17.0
25/07:00pm 22.0 22.1 19.2 84 1.8 SSW 17 30 9 16 1008.6 1006.5 17.0
25/06:54pm 22.1 21.4 19.6 86 1.6 S 22 32 12 17 1008.5 1006.4 17.0
25/06:30pm 22.4 23.0 20.3 88 1.4 SW 17 26 9 14 1008.7 1006.6 15.0
25/06:16pm 22.1 20.3 19.5 85 1.7 SSW 28 46 15 25 1008.2 1006.1 11.6
25/06:13pm 22.0 19.4 19.4 85 1.7 SSW 32 46 17 25 1007.9 1005.8 11.4
25/06:07pm 22.1 20.3 19.6 86 1.6 SSW 28 46 15 25 1007.4 1005.4 9.2
25/06:00pm 23.0 22.1 18.1 74 3.1 SSW 20 33 11 18 1007.4 1005.4 2.4
25/05:59pm 23.3 22.4 17.7 71 3.5 SSW 19 33 10 18 1007.4 1005.4 1.8
25/05:56pm 25.1 24.3 18.1 65 4.5 SSW 19 32 10 17 1007.3 1005.3 0.0
25/05:42pm 27.6 25.3 16.6 51 6.9 SSW 24 37 13 20 1006.9 1004.9 0.0
25/05:30pm 29.0 26.9 14.8 42 8.7 NNW 19 46 10 25 1006.6 1004.6 0.0
25/05:00pm 33.8 31.0 14.3 31 12.1 N 22 32 12 17 1005.3 1003.2 0.0
25/04:30pm 34.0 30.7 14.0 30 12.4 NE 24 39 13 21 1005.2 1003.1 0.0
25/04:00pm 33.7 30.8 15.2 33 11.7 NNE 24 35 13 19 1005.6 1003.5 0.0
25/03:30pm 34.1 31.2 14.1 30 12.4 N 22 33 12 18 1005.9 1003.8 0.0
25/03:00pm 33.6 30.5 14.6 31 11.9 N 24 37 13 20 1006.5 1004.5 0.0
25/02:30pm 33.9 31.9 14.9 32 11.9 N 19 30 10 16 1007.0 1005.0 0.0
25/02:00pm 33.3 30.3 14.8 32 11.6 NNW 24 32 13 17 1007.6 1005.5 0.0
25/01:30pm 33.4 30.3 14.5 32 11.8 N 24 35 13 19 1008.2 1006.1 0.0
25/01:00pm 32.3 28.9 15.7 36 10.5 N 28 39 15 21 1008.7 1006.6 0.0
25/12:31pm 31.6 27.1 13.8 34 10.9 NNW 30 48 16 26 1008.9 1006.8 0.0
25/12:30pm 32.1 27.4 14.3 34 11.0 N 32 48 17 26 1008.9 1006.8 0.0
25/12:00pm 32.7 28.0 14.8 34 11.2 N 33 48 18 26 1009.6 1007.6 0.0
25/11:30am 31.4 25.8 14.5 35 10.4 NNE 37 54 20 29 1009.8 1007.8 0.0
25/11:24am 31.2 25.8 13.9 35 10.6 NNE 35 54 19 29 1009.9 1007.9 0.0
25/11:00am 31.4 25.4 14.5 35 10.4 N 39 50 21 27 1010.4 1008.4 0.0
25/10:33am 30.1 25.5 15.0 40 9.4 N 33 52 18 28 1010.6 1008.6 0.0
25/10:30am 30.2 25.2 15.1 40 9.4 NNE 35 52 19 28 1010.6 1008.6 0.0
25/10:00am 29.2 24.9 15.3 42 8.6 N 32 43 17 23 1010.9 1008.9 0.0
25/09:30am 27.9 24.3 16.2 49 7.3 N 30 41 16 22 1011.2 1009.1 0.0
25/09:00am 26.7 24.0 16.6 54 6.3 NNE 26 37 14 20 1011.2 1009.1 0.0
25/08:49am 26.7 23.9 17.2 56 6.0 N 28 46 15 25 1011.2 1009.1 0.0
25/08:30am 26.0 23.2 17.4 59 5.4 NNE 28 33 15 18 1011.1 1009.0 0.0
25/08:00am 25.5 22.7 17.4 61 5.1 NNE 28 37 15 20 1010.7 1008.7 0.0
25/07:30am 24.3 21.3 16.8 63 4.7 NNE 28 39 15 21 1010.4 1008.4 0.0
25/07:00am 23.6 20.8 17.3 67 4.0 NNE 28 37 15 20 1010.2 1008.2 0.0
25/06:30am 23.3 20.9 17.3 69 3.8 NNE 26 41 14 22 1009.8 1007.8 0.0
25/06:00am 23.4 22.1 16.9 67 4.1 NNE 19 30 10 16 1009.5 1007.5 0.0
25/05:30am 23.5 22.4 17.3 68 3.9 NNE 19 26 10 14 1009.2 1007.2 0.0
25/05:00am 23.4 22.7 17.4 69 3.8 NE 17 24 9 13 1009.0 1007.0 0.0
25/04:30am 23.3 23.1 16.8 67 4.0 NE 13 15 7 8 1008.6 1006.5 0.0
25/04:00am 23.4 23.5 16.4 64 4.3 NE 11 15 6 8 1008.6 1006.5 0.0
25/03:30am 23.7 23.7 16.2 63 4.6 ENE 11 17 6 9 1008.2 1006.1 0.0
25/03:00am 23.5 23.8 16.1 63 4.6 E 9 13 5 7 1008.4 1006.3 0.0
25/02:30am 23.7 22.9 16.0 62 4.7 NNE 15 20 8 11 1008.2 1006.1 0.0
25/02:00am 24.0 22.8 16.0 61 4.9 N 17 24 9 13 1008.3 1006.2 0.0
25/01:30am 24.5 22.5 16.5 61 5.0 NNE 22 30 12 16 1008.4 1006.3 0.0
25/01:00am 25.1 23.6 16.3 58 5.5 NNE 19 26 10 14 1008.8 1006.7 0.0
25/12:30am 25.8 23.9 15.8 54 6.2 N 20 26 11 14 1009.0 1007.0 0.0
25/12:00am 26.1 24.1 15.5 52 6.5 N 20 28 11 15 1009.0 1007.0 0.0
 
Date/Time
EST
Temp
°C
App
Temp
°C
Dew
Point
°C
Rel
Hum
%
Delta-T
°C
Wind Press
QNH
hPa
Press
MSL
hPa
Rain since
9am
mm
Dir  Spd
km/h
Gust
km/h
Spd
kts
Gust
kts
24/11:30pm 26.9 24.6 15.6 50 7.0 N 22 33 12 18 1009.3 1007.3 0.0
24/11:00pm 26.6 25.8 16.2 52 6.5 NNE 15 22 8 12 1009.6 1007.6 0.0
24/10:30pm 26.2 26.8 16.7 56 6.0 NE 9 13 5 7 1009.4 1007.4 0.0
24/10:00pm 26.3 25.6 16.3 54 6.2 ENE 15 19 8 10 1008.9 1006.8 0.0
24/09:30pm 26.4 24.5 15.8 52 6.6 ENE 20 28 11 15 1008.5 1006.4 0.0
24/09:00pm 26.2 23.8 15.3 51 6.7 E 22 32 12 17 1008.2 1006.1 0.0
24/08:30pm 26.7 23.0 15.1 49 7.1 E 28 37 15 20 1008.0 1005.9 0.0
24/08:00pm 28.4 25.1 13.9 41 8.8 E 24 32 13 17 1007.2 1005.2 0.0
24/07:30pm 27.1 24.2 15.1 47 7.4 E 24 30 13 16 1006.5 1004.5 0.0
24/07:21pm 28.5 24.6 12.0 36 9.7 ENE 24 33 13 18 1006.4 1004.4 0.0
24/07:00pm 33.5 30.9 5.9 18 15.1 S 9 15 5 8 1005.9 1003.8 0.0
24/06:30pm 34.1 30.1 4.7 16 15.8 SSW 15 24 8 13 1005.3 1003.2 0.0
24/06:00pm 35.1 31.4 8.0 19 15.4 S 17 26 9 14 1004.9 1002.8 0.0
24/05:30pm 35.1 32.2 9.5 21 14.9 S 15 19 8 10 1005.0 1002.9 0.0
24/05:00pm 34.8 33.0 9.3 21 14.8 SSE 9 13 5 7 1005.0 1002.9 0.0
24/04:30pm 35.6 33.3 7.6 18 15.8 WSW 9 13 5 7 1005.2 1003.1 0.0
24/04:00pm 35.3 33.4 10.4 22 14.7 SSE 11 22 6 12 1005.2 1003.1 0.0
24/03:30pm 36.8 34.8 10.2 20 15.7 E 11 17 6 9 1005.3 1003.2 0.0
24/03:00pm 35.8 33.8 10.1 21 15.2 WNW 11 17 6 9 1006.2 1004.2 0.0
24/02:30pm 36.3 34.6 11.2 22 15.0 E 11 22 6 12 1006.6 1004.6 0.0
24/02:00pm 35.4 33.5 10.4 22 14.8 E 11 17 6 9 1007.2 1005.2 0.0
24/01:30pm 34.6 32.7 10.4 23 14.2 W 11 20 6 11 1008.1 1006.0 0.0
24/01:00pm 34.8 32.5 10.6 23 14.3 NE 13 24 7 13 1008.6 1006.5 0.0
24/12:30pm 33.9 31.2 10.5 24 13.7 NNE 15 24 8 13 1009.2 1007.2 0.0
24/12:00pm 34.2 31.8 10.1 23 14.1 NNE 13 20 7 11 1009.6 1007.6 0.0
24/11:30am 32.1 30.7 9.0 24 13.1 SE 6 15 3 8 1010.2 1008.2 0.0
24/11:00am 31.9 29.1 6.9 21 13.8 SSE 11 19 6 10 1010.7 1008.7 0.0
24/10:30am 30.1 26.4 4.7 20 13.3 SE 13 22 7 12 1011.1 1009.0 0.0
24/10:00am 29.7 25.7 5.1 21 13.0 ESE 15 24 8 13 1011.4 1009.3 0.0
24/09:30am 28.2 23.6 3.8 21 12.5 ESE 17 26 9 14 1011.5 1009.4 0.0
24/09:00am 27.2 22.5 3.0 21 12.1 ESE 17 26 9 14 1011.5 1009.4 0.0
24/08:30am 25.9 20.8 3.2 23 11.3 ESE 19 26 10 14 1011.5 1009.4 0.0
24/08:00am 25.1 20.5 3.7 25 10.7 SSE 17 24 9 13 1011.1 1009.0 0.0
24/07:30am 23.7 19.6 4.1 28 9.8 SSE 15 19 8 10 1010.8 1008.8 0.0
24/07:00am 22.7 19.0 4.2 30 9.2 SSE 13 17 7 9 1010.5 1008.5 0.0
24/06:30am 21.3 18.9 4.4 33 8.3 SE 6 11 3 6 1010.6 1008.6 0.0
24/06:00am 21.1 17.8 4.6 34 8.2 S 11 13 6 7 1010.0 1008.0 0.0
24/05:30am 21.0 18.5 4.6 34 8.1 S 7 9 4 5 1010.1 1008.1 0.0
24/05:00am 22.1 19.6 4.7 32 8.7 SSE 7 9 4 5 1009.8 1007.8 0.0
24/04:30am 22.3 19.4 4.8 32 8.8 SSE 9 13 5 7 1009.6 1007.6 0.0
24/04:00am 23.0 20.5 5.0 31 9.1 SSE 7 9 4 5 1009.5 1007.5 0.0
24/03:30am 23.3 20.6 5.7 32 9.0 SE 9 11 5 6 1009.5 1007.5 0.0
24/03:00am 24.1 21.6 6.4 32 9.3 S 9 17 5 9 1009.6 1007.6 0.0
24/02:30am 25.0 20.9 6.2 30 9.8 SSE 17 26 9 14 1009.3 1007.3 0.0
24/02:00am 25.1 22.0 7.3 32 9.5 S 13 17 7 9 1009.4 1007.4 0.0
24/01:30am 26.0 21.7 7.1 30 10.1 SSE 19 30 10 16 1009.5 1007.5 0.0
24/01:00am 26.3 22.5 7.4 30 10.2 SSE 17 24 9 13 1009.8 1007.8 0.0
24/12:30am 26.3 22.7 8.3 32 9.8 SSE 17 24 9 13 1009.9 1007.9 0.0
24/12:00am 26.7 23.8 8.2 31 10.1 SSE 13 19 7 10 1010.2 1008.2 0.0
 
Date/Time
EST
Temp
°C
App
Temp
°C
Dew
Point
°C
Rel
Hum
%
Delta-T
°C
Wind Press
QNH
hPa
Press
MSL
hPa
Rain since
9am
mm
Dir  Spd
km/h
Gust
km/h
Spd
kts
Gust
kts
23/11:30pm 27.6 23.8 9.0 31 10.4 SE 19 24 10 13 1010.0 1008.0 0.0
23/11:00pm 27.6 24.7 8.0 29 10.7 SE 13 15 7 8 1010.3 1008.3 0.0
23/10:30pm 27.9 25.0 8.2 29 10.8 SSE 13 17 7 9 1010.2 1008.2 0.0
23/10:00pm 28.3 26.2 8.1 28 11.1 SE 9 11 5 6 1010.2 1008.2 0.0
23/09:30pm 29.6 27.5 8.1 26 11.9 ESE 9 13 5 7 1010.2 1008.2 0.0
23/09:00pm 29.8 27.3 8.2 26 12.0 SSE 11 15 6 8 1009.9 1007.9 0.0

Other formats

Comma delimited format used in spreadsheet applications
http://www.bom.gov.au/fwo/IDQ60801/IDQ60801.94510.axf

JavaScript Object Notation format (JSON) in row-major order
http://www.bom.gov.au/fwo/IDQ60801/IDQ60801.94510.json

Data quality

Most of these data are generated automatically and are frequently updated. Quality checks on data are not normally performed. It is possible for incorrect values to appear. Refer to information at About Latest Weather Observations and please check the disclaimer before using these data.